createdAt,value
2022-11-05T00:00:37.163Z,99416.84
2022-11-05T00:03:22.573Z,99413.44
2022-11-05T00:06:10.570Z,99414.50
2022-11-05T00:08:55.868Z,99418.41
2022-11-05T00:11:42.628Z,99414.91
2022-11-05T00:14:27.961Z,99419.56
2022-11-05T00:16:54.562Z,99418.78
2022-11-05T00:19:21.190Z,99424.28
2022-11-05T00:22:06.252Z,99418.56
2022-11-05T00:24:51.316Z,99424.25
2022-11-05T00:27:17.991Z,99426.22
2022-11-05T00:29:44.664Z,99429.94
2022-11-05T00:32:11.326Z,99424.09
2022-11-05T00:34:37.991Z,99424.50
2022-11-05T00:37:04.603Z,99419.03
2022-11-05T00:39:31.233Z,99434.63
2022-11-05T00:42:16.284Z,99432.53
2022-11-05T00:45:01.303Z,99419.41
2022-11-05T00:47:46.833Z,99427.56
2022-11-05T00:50:13.696Z,99427.38
2022-11-05T00:52:58.908Z,99422.84
2022-11-05T00:55:41.105Z,99422.34
2022-11-05T00:58:19.228Z,99417.13
2022-11-05T01:00:53.023Z,99418.91
2022-11-05T01:03:22.185Z,99417.25
2022-11-05T01:05:56.927Z,99422.06
2022-11-05T01:08:27.366Z,99431.81
2022-11-05T01:10:56.664Z,99427.69
2022-11-05T01:13:26.679Z,99419.72
2022-11-05T01:15:53.948Z,99437.63
2022-11-05T01:18:21.950Z,99427.16
2022-11-05T01:20:48.685Z,99436.53
2022-11-05T01:23:15.882Z,99427.38
2022-11-05T01:25:43.448Z,99418.84
2022-11-05T01:28:10.448Z,99417.81
2022-11-05T01:30:38.140Z,99418.59
2022-11-05T01:33:04.824Z,99424.09
2022-11-05T01:35:31.683Z,99425.50
2022-11-05T01:37:58.379Z,99415.72
2022-11-05T01:40:25.528Z,99419.31
2022-11-05T01:42:52.155Z,99418.56
2022-11-05T01:45:26.224Z,99411.97
2022-11-05T01:48:14.075Z,99411.72
2022-11-05T01:51:01.539Z,99407.78
2022-11-05T01:53:41.425Z,99402.75
2022-11-05T01:56:09.968Z,99404.69
2022-11-05T01:58:48.887Z,99394.47
2022-11-05T02:01:15.941Z,99402.16
2022-11-05T02:03:43.458Z,99405.78
2022-11-05T02:06:11.514Z,99402.28
2022-11-05T02:09:00.592Z,99409.03
2022-11-05T02:11:27.405Z,99399.41
2022-11-05T02:13:54.326Z,99403.94
2022-11-05T02:16:20.987Z,99393.53
2022-11-05T02:19:00.340Z,99403.47
2022-11-05T02:22:20.388Z,99402.94
2022-11-05T02:25:11.134Z,99401.25
2022-11-05T02:28:14.679Z,99398.69
2022-11-05T02:30:44.032Z,99400.53
2022-11-05T02:33:27.515Z,99403.59
2022-11-05T02:36:12.115Z,99400.69
2022-11-05T02:38:57.441Z,99401.28
2022-11-05T02:41:49.145Z,99407.25
2022-11-05T02:44:45.025Z,99389.88
2022-11-05T02:47:43.139Z,99397.22
2022-11-05T02:50:21.680Z,99393.09
2022-11-05T02:53:07.698Z,99397.78
2022-11-05T02:55:40.266Z,99392.88
2022-11-05T02:58:07.152Z,99387.97
2022-11-05T03:00:49.938Z,99395.13
2022-11-05T03:03:42.103Z,99393.75
2022-11-05T03:06:08.830Z,99390.47
2022-11-05T03:08:46.343Z,99397.72
2022-11-05T03:11:18.952Z,99398.31
2022-11-05T03:13:59.140Z,99402.25
2022-11-05T03:16:49.082Z,99405.75
2022-11-05T03:19:27.918Z,99404.06
2022-11-05T03:22:03.001Z,99401.41
2022-11-05T03:24:35.779Z,99403.03
2022-11-05T03:27:12.527Z,99403.03
2022-11-05T03:29:47.415Z,99404.88
2022-11-05T03:32:15.990Z,99398.72
2022-11-05T03:34:50.641Z,99398.88
2022-11-05T03:37:20.487Z,99389.44
2022-11-05T03:39:52.218Z,99394.13
2022-11-05T03:42:23.896Z,99393.56
2022-11-05T03:44:55.511Z,99380.88
2022-11-05T03:47:25.862Z,99383.13
2022-11-05T03:50:07.854Z,99381.47
2022-11-05T03:52:59.658Z,99324.34
2022-11-05T03:55:36.641Z,99379.25
2022-11-05T03:58:06.019Z,99373.09
2022-11-05T04:00:33.311Z,99373.25
2022-11-05T04:03:00.008Z,99372.81
2022-11-05T04:05:26.807Z,99376.53
2022-11-05T04:08:14.416Z,99371.00
2022-11-05T04:11:00.186Z,99368.28
2022-11-05T04:13:27.918Z,99366.22
2022-11-05T04:16:14.386Z,99365.34
2022-11-05T04:18:41.289Z,99364.47
2022-11-05T04:21:27.603Z,99362.97
2022-11-05T04:24:09.729Z,99357.09
2022-11-05T04:26:38.719Z,99360.31
2022-11-05T04:29:24.432Z,99368.06
2022-11-05T04:31:51.106Z,99366.00
2022-11-05T04:34:19.020Z,99361.66
2022-11-05T04:36:50.078Z,99358.94
2022-11-05T04:39:18.103Z,99364.06
2022-11-05T04:41:47.967Z,99362.06
2022-11-05T04:44:15.604Z,99364.06
2022-11-05T04:46:42.612Z,99358.19
2022-11-05T04:49:09.265Z,99369.41
2022-11-05T04:51:35.890Z,99383.72
2022-11-05T04:54:02.625Z,99375.97
2022-11-05T04:56:29.241Z,99382.53
2022-11-05T04:58:55.892Z,99375.75
2022-11-05T05:01:23.712Z,99374.72
2022-11-05T05:03:51.807Z,99377.16
2022-11-05T05:06:18.759Z,99391.03
2022-11-05T05:08:47.727Z,99391.44
2022-11-05T05:11:16.476Z,99392.66
2022-11-05T05:13:43.417Z,99393.00
2022-11-05T05:16:20.388Z,99394.03
2022-11-05T05:18:48.305Z,99389.91
2022-11-05T05:21:34.367Z,99401.53
2022-11-05T05:24:01.137Z,99399.13
2022-11-05T05:26:28.059Z,99395.06
2022-11-05T05:28:55.002Z,99405.13
2022-11-05T05:31:22.381Z,99406.78
2022-11-05T05:33:49.202Z,99409.66
2022-11-05T05:36:15.836Z,99405.97
2022-11-05T05:38:42.563Z,99414.53
2022-11-05T05:41:09.188Z,99424.97
2022-11-05T05:43:35.863Z,99422.50
2022-11-05T05:46:08.006Z,99432.50
2022-11-05T05:48:34.813Z,99433.53
2022-11-05T05:51:06.269Z,99434.34
2022-11-05T05:53:33.386Z,99434.53
2022-11-05T05:56:00.420Z,99429.84
2022-11-05T05:58:31.783Z,99432.72
2022-11-05T06:01:04.038Z,99443.13
2022-11-05T06:03:30.923Z,99450.72
2022-11-05T06:06:05.552Z,99440.47
2022-11-05T06:08:32.683Z,99447.59
2022-11-05T06:10:59.694Z,99453.13
2022-11-05T06:13:27.548Z,99454.75
2022-11-05T06:15:59.480Z,99467.66
2022-11-05T06:18:26.501Z,99457.03
2022-11-05T06:20:53.180Z,99460.69
2022-11-05T06:23:19.790Z,99464.13
2022-11-05T06:25:46.420Z,99467.97
2022-11-05T06:28:13.207Z,99475.56
2022-11-05T06:30:39.825Z,99473.56
2022-11-05T06:33:06.491Z,99473.72
2022-11-05T06:35:34.001Z,99485.81
2022-11-05T06:38:03.618Z,99476.41
2022-11-05T06:40:30.309Z,99484.31
2022-11-05T06:42:56.980Z,99479.56
2022-11-05T06:45:23.912Z,99478.03
2022-11-05T06:47:58.793Z,99479.78
2022-11-05T06:50:26.764Z,99485.31
2022-11-05T06:52:57.810Z,99482.81
2022-11-05T06:55:25.293Z,99478.09
2022-11-05T06:57:52.077Z,99486.56
2022-11-05T07:00:19.467Z,99482.38
2022-11-05T07:02:46.512Z,99476.31
2022-11-05T07:05:14.659Z,99475.25
2022-11-05T07:07:42.655Z,99488.66
2022-11-05T07:10:12.649Z,99484.09
2022-11-05T07:12:39.262Z,99476.59
2022-11-05T07:15:06.669Z,99471.47
2022-11-05T07:17:33.398Z,99469.09
2022-11-05T07:20:00.050Z,99475.19
2022-11-05T07:22:26.675Z,99479.91
2022-11-05T07:24:53.414Z,99474.38
2022-11-05T07:27:20.092Z,99467.47
2022-11-05T07:29:46.729Z,99471.63
2022-11-05T07:32:13.466Z,99459.97
2022-11-05T07:34:40.238Z,99468.97
2022-11-05T07:37:06.996Z,99469.53
2022-11-05T07:39:33.590Z,99466.31
2022-11-05T07:42:00.341Z,99464.31
2022-11-05T07:44:26.945Z,99472.19
2022-11-05T07:46:53.630Z,99474.22
2022-11-05T07:49:20.276Z,99476.84
2022-11-05T07:51:46.926Z,99464.34
2022-11-05T07:54:13.574Z,99477.59
2022-11-05T07:56:40.203Z,99464.84
2022-11-05T07:59:06.942Z,99464.53
2022-11-05T08:01:33.760Z,99459.53
2022-11-05T08:04:00.476Z,99463.66
2022-11-05T08:06:27.096Z,99451.47
2022-11-05T08:08:53.755Z,99455.44
2022-11-05T08:11:20.380Z,99456.00
2022-11-05T08:13:47.085Z,99453.63
2022-11-05T08:16:13.825Z,99450.38
2022-11-05T08:18:40.549Z,99457.97
2022-11-05T08:21:07.495Z,99461.47
2022-11-05T08:23:34.209Z,99454.31
2022-11-05T08:26:03.403Z,99465.34
2022-11-05T08:28:30.039Z,99460.63
2022-11-05T08:30:57.356Z,99466.78
2022-11-05T08:33:27.512Z,99461.91
2022-11-05T08:35:54.235Z,99462.22
2022-11-05T08:38:20.967Z,99463.75
2022-11-05T08:40:55.626Z,99477.59
2022-11-05T08:43:22.513Z,99470.97
2022-11-05T08:45:49.415Z,99490.78
2022-11-05T08:48:17.878Z,99495.47
2022-11-05T08:50:46.097Z,99488.03
2022-11-05T08:53:13.809Z,99492.13
2022-11-05T08:55:40.903Z,99484.97
2022-11-05T08:58:15.412Z,99501.00
2022-11-05T09:00:43.931Z,99503.53
2022-11-05T09:03:11.333Z,99509.34
2022-11-05T09:05:40.253Z,99505.47
2022-11-05T09:08:11.619Z,99504.22
2022-11-05T09:10:39.094Z,99502.69
2022-11-05T09:13:06.400Z,99491.13
2022-11-05T09:15:33.942Z,99481.59
2022-11-05T09:18:00.589Z,99495.63
2022-11-05T09:20:27.268Z,99489.59
2022-11-05T09:22:54.444Z,99483.00
2022-11-05T09:25:21.079Z,99487.03
2022-11-05T09:27:47.765Z,99488.25
2022-11-05T09:30:14.645Z,99495.38
2022-11-05T09:32:42.136Z,99491.53
2022-11-05T09:35:09.661Z,99488.63
2022-11-05T09:37:37.105Z,99488.28
2022-11-05T09:40:04.074Z,99484.97
2022-11-05T09:42:52.562Z,99483.59
2022-11-05T09:45:22.930Z,99479.56
2022-11-05T09:48:20.793Z,99486.03
2022-11-05T09:50:48.679Z,99482.75
2022-11-05T09:53:18.747Z,99482.81
2022-11-05T09:55:55.620Z,99493.44
2022-11-05T09:58:31.525Z,99485.72
2022-11-05T10:01:01.068Z,99473.69
2022-11-05T10:03:30.231Z,99477.41
2022-11-05T10:06:05.976Z,99480.56
2022-11-05T10:08:38.119Z,99476.25
2022-11-05T10:11:13.866Z,99477.22
2022-11-05T10:14:02.844Z,99466.94
2022-11-05T10:16:34.711Z,99466.41
2022-11-05T10:19:09.843Z,99463.81
2022-11-05T10:22:04.939Z,99460.97
2022-11-05T10:24:24.689Z,99460.81
2022-11-05T10:26:53.355Z,99456.41
2022-11-05T10:29:42.571Z,99455.91
2022-11-05T10:32:16.271Z,99452.59
2022-11-05T10:34:43.007Z,99459.84
2022-11-05T10:37:10.546Z,99451.38
2022-11-05T10:39:37.522Z,99437.75
2022-11-05T10:42:16.931Z,99447.94
2022-11-05T10:44:58.477Z,99446.25
2022-11-05T10:47:46.832Z,99444.19
2022-11-05T10:50:20.168Z,99444.38
2022-11-05T10:53:15.124Z,99449.91
2022-11-05T10:55:46.156Z,99443.22
2022-11-05T10:58:15.571Z,99435.13
2022-11-05T11:00:51.613Z,99440.19
2022-11-05T11:03:45.187Z,99433.56
2022-11-05T11:06:28.168Z,99431.81
2022-11-05T11:09:00.787Z,99417.59
2022-11-05T11:11:35.917Z,99415.63
2022-11-05T11:14:02.550Z,99415.00
2022-11-05T11:16:36.191Z,99408.81
2022-11-05T11:19:03.376Z,99417.91
2022-11-05T11:21:32.552Z,99403.16
2022-11-05T11:24:04.920Z,99402.66
2022-11-05T11:26:40.942Z,99394.44
2022-11-05T11:29:15.579Z,99393.59
2022-11-05T11:31:42.405Z,99391.94
2022-11-05T11:34:34.225Z,99393.25
2022-11-05T11:37:16.688Z,99389.94
2022-11-05T11:39:50.897Z,99383.28
2022-11-05T11:42:40.238Z,99386.81
2022-11-05T11:45:18.154Z,99384.56
2022-11-05T11:47:47.123Z,99382.16
2022-11-05T11:50:38.510Z,99380.88
2022-11-05T11:53:20.446Z,99383.50
2022-11-05T11:55:55.908Z,99378.53
2022-11-05T11:58:25.288Z,99374.41
2022-11-05T12:01:27.325Z,99372.84
2022-11-05T12:03:53.958Z,99371.75
2022-11-05T12:06:39.438Z,99371.34
2022-11-05T12:09:20.436Z,99368.50
2022-11-05T12:12:06.132Z,99358.13
2022-11-05T12:15:03.613Z,99369.44
2022-11-05T12:17:39.690Z,99366.09
2022-11-05T12:20:34.315Z,99370.81
2022-11-05T12:23:23.776Z,99343.69
2022-11-05T12:25:59.575Z,99363.59
2022-11-05T12:29:04.687Z,99369.31
2022-11-05T12:31:48.976Z,99358.31
2022-11-05T12:34:30.004Z,99361.28
2022-11-05T12:37:35.057Z,99356.31
2022-11-05T12:40:39.079Z,99355.06
2022-11-05T12:43:31.189Z,99356.28
2022-11-05T12:46:25.213Z,99356.25
2022-11-05T12:48:51.803Z,99348.19
2022-11-05T12:51:40.062Z,99345.72
2022-11-05T12:54:43.459Z,99345.38
2022-11-05T12:57:13.156Z,99347.44
2022-11-05T12:59:42.542Z,99349.13
2022-11-05T13:02:12.364Z,99355.91
2022-11-05T13:04:50.041Z,99350.84
2022-11-05T13:07:22.475Z,99349.91
2022-11-05T13:09:59.462Z,99345.09
2022-11-05T13:12:30.124Z,99345.28
2022-11-05T13:15:02.289Z,99349.19
2022-11-05T13:17:39.291Z,99345.94
2022-11-05T13:20:26.667Z,99339.13
2022-11-05T13:23:00.716Z,99342.44
2022-11-05T13:25:35.696Z,99338.84
2022-11-05T13:28:19.940Z,99328.88
2022-11-05T13:30:51.859Z,99337.22
2022-11-05T13:33:30.980Z,99336.84
2022-11-05T13:36:31.029Z,99338.41
2022-11-05T13:39:11.749Z,99326.19
2022-11-05T13:41:47.859Z,99342.16
2022-11-05T13:44:36.341Z,99342.28
2022-11-05T13:47:09.128Z,99334.09
2022-11-05T13:49:41.357Z,99337.25
2022-11-05T13:52:13.659Z,99336.44
2022-11-05T13:54:43.315Z,99333.44
2022-11-05T13:57:17.793Z,99337.97
2022-11-05T14:00:11.542Z,99344.72
2022-11-05T14:02:44.194Z,99351.81
2022-11-05T14:05:28.524Z,99349.69
2022-11-05T14:07:56.002Z,99365.53
2022-11-05T14:10:36.938Z,99340.84
2022-11-05T14:13:14.338Z,99339.19
2022-11-05T14:15:56.836Z,99356.81
2022-11-05T14:18:46.934Z,99356.00
2022-11-05T14:21:25.761Z,99353.50
2022-11-05T14:23:54.867Z,99345.16
2022-11-05T14:26:24.877Z,99355.84
2022-11-05T14:29:11.468Z,99353.94
2022-11-05T14:32:07.899Z,99354.47
2022-11-05T14:34:43.405Z,99351.09
2022-11-05T14:37:09.989Z,99350.78
2022-11-05T14:39:37.081Z,99347.03
2022-11-05T14:42:11.988Z,99342.06
2022-11-05T14:44:58.445Z,99350.44
2022-11-05T14:47:30.180Z,99352.38
2022-11-05T14:50:18.106Z,99348.84
2022-11-05T14:52:57.212Z,99353.09
2022-11-05T14:55:35.388Z,99347.63
2022-11-05T14:58:06.477Z,99348.75
2022-11-05T15:00:36.528Z,99353.09
2022-11-05T15:03:24.964Z,99348.25
2022-11-05T15:05:52.791Z,99351.25
2022-11-05T15:08:31.611Z,99352.06
2022-11-05T15:11:14.951Z,99355.28
2022-11-05T15:13:53.489Z,99354.59
2022-11-05T15:16:24.937Z,99355.91
2022-11-05T15:18:54.617Z,99354.28
2022-11-05T15:21:22.066Z,99351.69
2022-11-05T15:23:53.201Z,99348.69
2022-11-05T15:26:38.507Z,99354.94
2022-11-05T15:29:19.647Z,99358.75
2022-11-05T15:31:46.968Z,99367.41
2022-11-05T15:34:23.283Z,99357.31
2022-11-05T15:37:01.083Z,99358.38
2022-11-05T15:39:45.962Z,99363.47
2022-11-05T15:42:24.483Z,99367.25
2022-11-05T15:44:53.343Z,99357.88
2022-11-05T15:47:30.163Z,99367.34
2022-11-05T15:50:13.978Z,99373.69
2022-11-05T15:52:53.425Z,99384.22
2022-11-05T15:55:25.299Z,99382.38
2022-11-05T15:58:12.337Z,99387.56
2022-11-05T16:00:39.027Z,99392.44
2022-11-05T16:03:16.045Z,99401.19
2022-11-05T16:05:45.331Z,99399.13
2022-11-05T16:08:18.695Z,99398.06
2022-11-05T16:10:51.811Z,99405.94
2022-11-05T16:13:35.716Z,99397.28
2022-11-05T16:16:05.480Z,99399.41
2022-11-05T16:18:35.636Z,99403.97
2022-11-05T16:21:10.947Z,99406.38
2022-11-05T16:23:48.051Z,99411.53
2022-11-05T16:29:35.314Z,99419.94
2022-11-05T16:32:17.699Z,99423.72
2022-11-05T16:34:51.588Z,99414.75
2022-11-05T16:37:22.274Z,99424.44
2022-11-05T16:39:49.181Z,99424.91
2022-11-05T16:42:40.054Z,99431.63
2022-11-05T16:45:11.302Z,99432.38
2022-11-05T16:47:37.985Z,99430.19
2022-11-05T16:50:31.951Z,99446.94
2022-11-05T16:52:58.587Z,99445.34
2022-11-05T16:55:25.312Z,99451.28
2022-11-05T16:57:55.372Z,99436.72
2022-11-05T17:00:23.692Z,99450.06
2022-11-05T17:02:51.134Z,99447.91
2022-11-05T17:05:20.625Z,99455.47
2022-11-05T17:07:47.363Z,99451.59
2022-11-05T17:10:14.497Z,99464.59
2022-11-05T17:12:42.224Z,99457.38
2022-11-05T17:15:18.024Z,99457.59
2022-11-05T17:17:45.265Z,99463.81
2022-11-05T17:20:20.457Z,99468.28
2022-11-05T17:22:47.128Z,99478.78
2022-11-05T17:25:13.877Z,99478.50
2022-11-05T17:27:40.704Z,99473.09
2022-11-05T17:30:09.538Z,99477.97
2022-11-05T17:32:36.338Z,99474.41
2022-11-05T17:35:03.233Z,99478.19
2022-11-05T17:37:29.948Z,99476.28
2022-11-05T17:39:57.039Z,99480.09
2022-11-05T17:42:23.816Z,99481.16
2022-11-05T17:44:50.508Z,99467.03
2022-11-05T17:47:18.510Z,99478.53
2022-11-05T17:49:45.142Z,99484.13
2022-11-05T17:52:12.058Z,99481.78
2022-11-05T17:54:38.772Z,99491.41
2022-11-05T17:57:05.515Z,99482.94
2022-11-05T17:59:32.419Z,99485.38
2022-11-05T18:01:59.339Z,99481.88
2022-11-05T18:04:26.079Z,99490.63
2022-11-05T18:06:52.958Z,99483.06
2022-11-05T18:09:19.612Z,99492.56
2022-11-05T18:11:46.355Z,99487.22
2022-11-05T18:14:13.884Z,99492.44
2022-11-05T18:16:40.582Z,99487.88
2022-11-05T18:19:07.367Z,99493.06
2022-11-05T18:21:34.192Z,99491.66
2022-11-05T18:24:05.275Z,99499.47
2022-11-05T18:26:32.986Z,99490.06
2022-11-05T18:29:05.176Z,99490.34
2022-11-05T18:31:31.931Z,99476.78
2022-11-05T18:33:59.910Z,99498.28
2022-11-05T18:36:29.693Z,99499.59
2022-11-05T18:39:04.469Z,99492.88
2022-11-05T18:41:32.330Z,99498.22
2022-11-05T18:44:00.971Z,99489.56
2022-11-05T18:46:56.445Z,99490.31
2022-11-05T18:49:16.077Z,99473.00
2022-11-05T18:51:42.934Z,99500.84
2022-11-05T18:54:09.571Z,99497.09
2022-11-05T18:56:36.324Z,99495.69
2022-11-05T18:59:34.477Z,99499.72
2022-11-05T19:01:50.291Z,99509.94
2022-11-05T19:04:17.031Z,99466.31
2022-11-05T19:06:43.761Z,99521.00
2022-11-05T19:09:12.473Z,99523.84
2022-11-05T19:11:40.745Z,99527.75
2022-11-05T19:14:08.189Z,99526.06
2022-11-05T19:16:35.249Z,99530.94
2022-11-05T19:19:03.982Z,99533.66
2022-11-05T19:21:31.036Z,99536.03
2022-11-05T19:24:01.386Z,99546.03
2022-11-05T19:26:29.158Z,99541.34
2022-11-05T19:28:58.853Z,99550.91
2022-11-05T19:31:26.436Z,99554.38
2022-11-05T19:33:54.010Z,99546.63
2022-11-05T19:36:22.139Z,99545.13
2022-11-05T19:38:53.176Z,99561.28
2022-11-05T19:41:21.510Z,99556.25
2022-11-05T19:43:48.262Z,99548.28
2022-11-05T19:46:18.657Z,99553.16
2022-11-05T19:48:46.319Z,99558.06
2022-11-05T19:51:24.308Z,99565.47
2022-11-05T19:53:52.836Z,99564.81
2022-11-05T19:56:21.778Z,99558.78
2022-11-05T19:58:55.968Z,99577.44
2022-11-05T20:01:24.345Z,99573.63
2022-11-05T20:03:52.089Z,99574.94
2022-11-05T20:06:22.018Z,99570.66
2022-11-05T20:11:40.125Z,99576.78
2022-11-05T20:14:09.339Z,99569.69
2022-11-05T20:16:38.287Z,99569.69
2022-11-05T20:19:07.600Z,99563.72
2022-11-05T20:21:34.552Z,99575.13
2022-11-05T20:24:01.360Z,99568.97
2022-11-05T20:26:28.699Z,99572.00
2022-11-05T20:28:55.381Z,99575.34
2022-11-05T20:31:22.399Z,99574.88
2022-11-05T20:33:49.292Z,99575.53
2022-11-05T20:36:22.423Z,99569.91
2022-11-05T20:38:50.840Z,99570.50
2022-11-05T20:41:18.042Z,99570.91
2022-11-05T20:43:45.089Z,99575.03
2022-11-05T20:46:14.992Z,99568.25
2022-11-05T20:48:42.384Z,99575.81
2022-11-05T20:51:17.668Z,99566.56
2022-11-05T20:53:44.412Z,99554.63
2022-11-05T20:56:19.479Z,99570.81
2022-11-05T20:58:46.535Z,99570.00
2022-11-05T21:01:14.072Z,99574.69
2022-11-05T21:03:40.723Z,99577.06
2022-11-05T21:06:07.738Z,99573.72
2022-11-05T21:08:35.252Z,99581.94
2022-11-05T21:11:02.162Z,99584.13
2022-11-05T21:13:29.192Z,99575.97
2022-11-05T21:15:58.717Z,99582.47
2022-11-05T21:18:29.491Z,99579.47
2022-11-05T21:20:56.580Z,99578.88
2022-11-05T21:23:23.764Z,99580.09
2022-11-05T21:25:50.528Z,99584.13
2022-11-05T21:28:17.196Z,99590.50
2022-11-05T21:30:45.889Z,99592.75
2022-11-05T21:33:14.582Z,99593.94
2022-11-05T21:35:45.929Z,99591.28
2022-11-05T21:38:14.587Z,99597.72
2022-11-05T21:40:42.074Z,99591.53
2022-11-05T21:43:08.979Z,99592.47
2022-11-05T21:45:38.908Z,99598.75
2022-11-05T21:48:06.229Z,99582.44
2022-11-05T21:50:51.349Z,99597.78
2022-11-05T21:53:36.585Z,99593.00
2022-11-05T21:56:35.102Z,99595.88
2022-11-05T21:59:20.607Z,99602.50
2022-11-05T22:01:47.360Z,99596.66
2022-11-05T22:04:14.067Z,99601.56
2022-11-05T22:06:40.799Z,99595.78
2022-11-05T22:09:07.431Z,99602.72
2022-11-05T22:11:37.696Z,99613.31
2022-11-05T22:14:04.825Z,99598.91
2022-11-05T22:16:31.481Z,99600.63
2022-11-05T22:18:58.975Z,99605.44
2022-11-05T22:21:25.687Z,99610.44
2022-11-05T22:23:53.032Z,99615.69
2022-11-05T22:26:19.679Z,99610.16
2022-11-05T22:28:46.388Z,99614.25
2022-11-05T22:31:16.800Z,99612.94
2022-11-05T22:33:43.901Z,99612.09
2022-11-05T22:36:11.627Z,99607.97
2022-11-05T22:38:38.959Z,99602.38
2022-11-05T22:41:10.123Z,99600.97
2022-11-05T22:43:37.379Z,99605.13
2022-11-05T22:46:09.375Z,99601.91
2022-11-05T22:48:37.257Z,99613.63
2022-11-05T22:51:19.378Z,99606.81
2022-11-05T22:53:46.094Z,99594.84
2022-11-05T22:56:16.039Z,99594.09
2022-11-05T22:58:43.420Z,99592.16
2022-11-05T23:01:15.689Z,99607.78
2022-11-05T23:03:43.955Z,99602.56
2022-11-05T23:06:39.115Z,99604.44
2022-11-05T23:09:31.582Z,99606.41
2022-11-05T23:11:58.756Z,99592.84
2022-11-05T23:14:25.999Z,99598.19
2022-11-05T23:17:11.376Z,99593.00
2022-11-05T23:19:57.935Z,99595.16
2022-11-05T23:22:46.955Z,99596.97
2022-11-05T23:25:19.996Z,99611.97
2022-11-05T23:27:50.022Z,99610.56
2022-11-05T23:30:22.930Z,99603.16
2022-11-05T23:32:50.706Z,99611.16
2022-11-05T23:35:17.546Z,99611.28
2022-11-05T23:38:02.696Z,99618.53
2022-11-05T23:40:51.543Z,99614.88
2022-11-05T23:43:36.428Z,99606.63
2022-11-05T23:46:21.879Z,99607.25
2022-11-05T23:48:48.499Z,99615.69
2022-11-05T23:51:15.104Z,99611.22
2022-11-05T23:53:41.804Z,99611.47
2022-11-05T23:56:11.471Z,99611.59
2022-11-05T23:58:39.383Z,99602.25
